Time;durP1;ratioP1;P1;durP2;ratioP2;P2;SDS_P1;SDS_P2;PMS_P1;PMS_P2;Temp;Humidity;BMP_temperature;BMP_pressure;BME280_temperature;BME280_humidity;BME280_pressure;Samples;Min_cycle;Max_cycle;Signal;HPM_P1;HPM_P2
2023/02/27 19:50:21;;;;;;;12.23;7.45;;;;;;;7.30;74.81;101534.16;4901557;29;20063;-81
2023/02/27 19:52:51;;;;;;;13.98;7.78;;;;;;;7.34;74.75;101532.94;4917843;29;20036;-83
2023/02/27 19:55:21;;;;;;;15.73;8.32;;;;;;;7.29;74.70;101529.78;4930769;29;20059;-83
2023/02/27 19:57:50;;;;;;;13.40;8.40;;;;;;;7.25;74.72;101533.66;4932401;29;20040;-83
2023/02/27 20:00:24;;;;;;;13.50;7.90;;;;;;;7.33;74.51;101541.97;4900789;29;20503;-83
2023/02/27 20:02:57;;;;;;;14.55;8.10;;;;;;;7.28;74.99;101549.50;4931175;29;20119;-83
2023/02/27 20:05:27;;;;;;;13.43;8.27;;;;;;;7.24;75.43;101556.03;4883133;29;20235;-81
2023/02/27 20:07:57;;;;;;;13.32;8.00;;;;;;;6.88;75.42;101496.38;4883327;29;20075;-83
2023/02/27 20:10:46;;;;;;;;;;;;;;;;;;;;;
2023/02/27 20:13:12;;;;;;;14.30;8.07;;;;;;;7.17;75.19;101544.94;4896990;29;20098;-79
2023/02/27 20:15:38;;;;;;;13.50;8.20;;;;;;;7.05;75.35;101537.88;4914202;29;20035;-83
2023/02/27 20:18:03;;;;;;;13.15;8.43;;;;;;;7.06;75.45;101546.75;4907419;29;20173;-82
2023/02/27 20:20:29;;;;;;;14.93;8.02;;;;;;;7.00;75.26;101539.16;4913178;29;20467;-83
2023/02/27 20:22:55;;;;;;;12.68;7.90;;;;;;;7.00;75.22;101528.47;4866102;29;20496;-81
2023/02/27 20:25:28;;;;;;;14.32;7.90;;;;;;;7.08;74.97;101531.44;4924990;29;20123;-85
2023/02/27 20:31:26;;;;;;;13.07;7.10;;;;;;;6.96;74.06;101539.41;4847757;29;20173;-81
2023/02/27 20:33:52;;;;;;;12.65;7.20;;;;;;;7.08;73.93;101574.22;4909347;29;20036;-85
2023/02/27 20:36:19;;;;;;;12.55;7.15;;;;;;;7.00;73.80;101549.88;4894553;29;20078;-84
2023/02/27 20:38:45;;;;;;;10.77;6.43;;;;;;;7.17;73.25;101584.22;4927388;29;20051;-83
2023/02/27 20:41:19;;;;;;;10.35;6.05;;;;;;;7.15;73.02;101570.09;4910381;29;20508;-84
2023/02/27 20:43:55;;;;;;;10.75;6.00;;;;;;;7.31;73.04;101581.34;4929043;29;20051;-82
2023/02/27 20:46:26;;;;;;;12.57;6.05;;;;;;;7.31;72.68;101578.66;4892156;29;20042;-82
2023/02/27 20:48:55;;;;;;;12.65;7.38;;;;;;;7.24;72.93;101589.97;4889851;29;20032;-84
2023/02/27 20:51:44;;;;;;;11.88;7.47;;;;;;;7.12;72.54;101570.34;4914073;29;20047;-89
2023/02/27 20:54:18;;;;;;;10.50;6.47;;;;;;;7.38;72.96;101606.66;4917418;29;20036;-87
2023/02/27 20:56:46;;;;;;;9.00;5.20;;;;;;;7.36;72.68;101597.03;4920910;29;20482;-91
2023/02/27 20:59:16;;;;;;;11.50;5.65;;;;;;;7.47;72.41;101612.25;4907866;29;20040;-87
2023/02/27 21:02:00;;;;;;;9.23;5.40;;;;;;;7.62;71.92;101613.78;4939291;29;20067;-91
2023/02/27 21:05:02;;;;;;;10.70;5.38;;;;;;;7.49;71.25;101615.69;4931949;29;20031;-90
2023/02/27 21:07:50;;;;;;;9.18;5.15;;;;;;;7.40;71.48;101638.66;4939339;29;20073;-90
2023/02/27 21:10:49;;;;;;;10.55;5.22;;;;;;;7.51;71.49;101641.34;4919748;29;20147;-89
2023/02/27 21:13:35;;;;;;;8.50;5.15;;;;;;;7.44;71.25;101609.81;4916932;29;20043;-90
2023/02/27 21:16:03;;;;;;;8.45;5.25;;;;;;;7.78;70.57;101648.25;4908434;29;20047;-84
2023/02/27 21:18:38;;;;;;;10.20;5.63;;;;;;;7.80;70.83;101652.50;4912267;29;20086;-90
2023/02/27 21:24:05;;;;;;;9.50;4.80;;;;;;;7.78;69.78;101657.13;4926323;29;20038;-87
2023/02/27 21:26:53;;;;;;;7.00;4.43;;;;;;;7.79;70.25;101656.13;4918569;29;20044;-84
2023/02/27 21:29:22;;;;;;;14.70;6.05;;;;;;;7.77;71.18;101687.56;4897412;29;20445;-81
2023/02/27 21:31:49;;;;;;;8.75;5.38;;;;;;;7.84;70.45;101669.16;4904377;29;20059;-86
2023/02/27 21:34:20;;;;;;;8.95;4.80;;;;;;;7.83;70.73;101673.69;4922194;29;20457;-86
2023/02/27 21:36:53;;;;;;;9.30;4.85;;;;;;;7.78;71.34;101697.28;4922835;29;20051;-86
2023/02/27 21:40:01;;;;;;;7.50;4.25;;;;;;;7.81;70.57;101686.31;4940931;29;20050;-86
2023/02/27 21:42:42;;;;;;;8.35;4.43;;;;;;;7.61;70.78;101679.00;4950376;29;20039;-88
2023/02/27 21:50:25;;;;;;;7.85;4.60;;;;;;;7.71;70.82;101727.31;4953247;28;20411;-91
2023/02/27 21:52:54;;;;;;;6.93;4.22;;;;;;;7.57;70.75;101688.22;4947041;28;20047;-89
2023/02/27 21:55:22;;;;;;;9.20;4.43;;;;;;;7.38;71.43;101678.03;4941453;29;20491;-88
2023/02/27 21:57:50;;;;;;;7.65;4.00;;;;;;;7.39;70.92;101672.56;4927638;28;20130;-88
2023/02/27 22:00:37;;;;;;;6.68;4.00;;;;;;;7.31;71.30;101674.13;4941741;29;20043;-89
2023/02/27 22:03:33;;;;;;;6.28;3.90;;;;;;;7.30;72.35;101691.97;4937275;29;20062;-88
2023/02/27 22:06:37;;;;;;;7.95;3.85;;;;;;;7.38;71.81;101689.59;4950710;28;20039;-90
2023/02/27 22:09:04;;;;;;;6.93;4.10;;;;;;;7.34;71.83;101693.47;4949755;29;20123;-80
2023/02/27 22:11:30;;;;;;;6.30;3.60;;;;;;;7.54;72.16;101716.06;4904081;29;20047;-86
2023/02/27 22:13:57;;;;;;;6.30;3.88;;;;;;;7.49;71.45;101707.53;4930834;28;20430;-84
2023/02/27 22:16:23;;;;;;;6.72;4.13;;;;;;;7.64;71.96;101737.63;4928803;29;20562;-83
2023/02/27 22:18:49;;;;;;;6.53;4.10;;;;;;;7.69;71.56;101729.25;4946935;28;20109;-82
2023/02/27 22:21:19;;;;;;;5.50;3.72;;;;;;;7.65;71.67;101717.06;4930248;28;20373;-88
2023/02/27 22:23:46;;;;;;;6.28;4.18;;;;;;;7.87;71.33;101745.75;4935558;29;20525;-86
2023/02/27 22:26:23;;;;;;;7.78;3.83;;;;;;;7.95;70.44;101746.84;4930220;29;20046;-84
2023/02/27 22:28:50;;;;;;;5.50;3.55;;;;;;;7.99;70.52;101748.34;4935623;29;20054;-89
2023/02/27 22:31:20;;;;;;;5.40;3.33;;;;;;;8.07;70.89;101755.78;4921001;29;20035;-86
2023/02/27 22:33:47;;;;;;;5.95;3.80;;;;;;;7.94;70.64;101750.50;4926671;29;20504;-86
2023/02/27 22:36:19;;;;;;;6.45;4.20;;;;;;;7.88;70.59;101724.19;4919911;29;20057;-85
2023/02/27 22:38:45;;;;;;;6.35;3.85;;;;;;;8.03;70.32;101754.31;4934071;29;20043;-88
2023/02/27 22:41:14;;;;;;;6.65;3.80;;;;;;;7.97;70.15;101754.78;4927857;29;20035;-87
2023/02/27 22:43:43;;;;;;;5.82;3.78;;;;;;;7.92;69.98;101762.31;4923243;29;20031;-87
2023/02/27 22:46:10;;;;;;;5.63;3.67;;;;;;;7.73;70.24;101768.22;4937964;29;20038;-85
2023/02/27 22:48:35;;;;;;;5.85;3.40;;;;;;;7.87;70.04;101775.19;4932982;29;20065;-86
2023/02/27 22:51:03;;;;;;;4.82;3.10;;;;;;;7.82;69.60;101772.88;4932855;28;20139;-86
2023/02/27 22:53:36;;;;;;;4.80;3.40;;;;;;;7.78;69.20;101776.75;4933820;29;20040;-85
2023/02/27 22:56:06;;;;;;;5.43;3.55;;;;;;;7.57;70.17;101771.19;4941272;29;20020;-85
2023/02/27 22:58:35;;;;;;;7.53;4.85;;;;;;;7.54;70.75;101761.56;4947113;29;20495;-88
2023/02/27 23:01:07;;;;;;;5.38;3.80;;;;;;;7.43;71.30;101769.53;4934605;29;20036;-88
2023/02/27 23:03:39;;;;;;;5.28;3.60;;;;;;;7.27;71.47;101756.41;4930790;29;20035;-85
2023/02/27 23:06:10;;;;;;;5.65;3.50;;;;;;;7.22;71.69;101750.56;4935554;29;20086;-85
2023/02/27 23:08:36;;;;;;;6.47;3.65;;;;;;;7.23;71.54;101770.97;4934043;29;20043;-87
2023/02/27 23:11:02;;;;;;;5.15;3.40;;;;;;;7.29;71.85;101778.56;4921181;29;20045;-86
2023/02/27 23:13:27;;;;;;;5.38;3.50;;;;;;;7.42;70.68;101781.16;4953013;28;20039;-87
2023/02/27 23:15:54;;;;;;;6.13;3.45;;;;;;;7.12;71.62;101778.94;4904494;29;20051;-87
2023/02/27 23:18:20;;;;;;;5.20;3.65;;;;;;;7.10;72.28;101784.41;4921174;28;20039;-86
2023/02/27 23:20:46;;;;;;;5.40;3.63;;;;;;;7.24;71.93;101785.22;4926989;29;20129;-85
2023/02/27 23:23:14;;;;;;;15.32;9.77;;;;;;;7.28;71.84;101789.34;4934678;29;20427;-87
2023/02/27 23:25:40;;;;;;;5.57;3.78;;;;;;;7.12;71.73;101776.28;4932678;29;20066;-86
2023/02/27 23:28:05;;;;;;;6.60;4.10;;;;;;;7.27;71.64;101790.34;4939628;29;20050;-84
2023/02/27 23:30:32;;;;;;;5.43;3.70;;;;;;;7.12;71.84;101757.56;4922555;29;20045;-90
2023/02/27 23:33:04;;;;;;;7.60;3.95;;;;;;;7.30;71.65;101790.94;4942763;28;20055;-90
2023/02/27 23:35:34;;;;;;;5.10;3.63;;;;;;;7.39;71.92;101795.63;4957147;28;20016;-90
2023/02/27 23:38:05;;;;;;;5.60;3.50;;;;;;;7.43;70.93;101814.16;4943677;28;20054;-86
2023/02/27 23:40:32;;;;;;;6.30;4.10;;;;;;;7.45;71.28;101813.06;4943529;28;20043;-87
2023/02/27 23:42:58;;;;;;;6.28;4.38;;;;;;;7.59;70.98;101820.09;4911600;29;20054;-85
2023/02/27 23:45:26;;;;;;;6.97;3.90;;;;;;;7.59;71.08;101825.44;4913489;29;20044;-87
2023/02/27 23:47:53;;;;;;;6.25;4.15;;;;;;;7.69;70.67;101820.25;4954296;29;20054;-86
2023/02/27 23:50:32;;;;;;;6.40;4.05;;;;;;;7.54;71.00;101832.97;4917248;29;20040;-84
2023/02/27 23:52:59;;;;;;;6.35;4.03;;;;;;;7.48;71.62;101846.78;4920425;29;20043;-87
2023/02/27 23:55:27;;;;;;;5.38;3.58;;;;;;;7.46;71.16;101870.97;4897384;29;20028;-85
2023/02/27 23:57:53;;;;;;;5.60;3.85;;;;;;;7.57;71.02;101876.41;4929009;29;20341;-86
